Crete Municipal Airport


Codes: KCEK/
Name: Crete Municipal Airport
City: Crete
Country: United States
Elevation: 1500 ft.

Photos at Crete Municipal Airport


   Photos courtesy of SpottingLog. You can add your own sightings and photos by signing up for a free trial today.



No photos found.

Weather at Crete Municipal Airport


Time (UTC)DescriptionTempratureWindCloud coverageVisibilityPressureHumidity
21-Feb-2024 03:00Overcast Clouds13°C11 mph, SW87%10000m1014hPa45%
21-Feb-2024 06:00Broken Clouds12°C9 mph, SW75%10000m1014hPa54%
21-Feb-2024 09:00Broken Clouds9°C4 mph, NW63%10000m1014hPa59%
21-Feb-2024 12:00Broken Clouds6°C7 mph, N73%10000m1014hPa69%
21-Feb-2024 15:00Overcast Clouds8°C7 mph, NE95%10000m1013hPa65%
21-Feb-2024 18:00Overcast Clouds14°C7 mph, E87%10000m1010hPa43%
21-Feb-2024 21:00Broken Clouds17°C7 mph, E72%10000m1006hPa38%
22-Feb-2024 00:00Overcast Clouds13°C9 mph, NE86%10000m1005hPa53%
22-Feb-2024 03:00Overcast Clouds11°C7 mph, NE100%10000m1007hPa56%
22-Feb-2024 06:00Overcast Clouds9°C9 mph, N100%10000m1007hPa65%
22-Feb-2024 09:00Overcast Clouds8°C7 mph, N100%10000m1008hPa69%
22-Feb-2024 12:00Overcast Clouds7°C9 mph, N100%10000m1010hPa68%
22-Feb-2024 15:00Overcast Clouds8°C11 mph, N100%10000m1012hPa64%
22-Feb-2024 18:00Overcast Clouds12°C16 mph, NW95%10000m1013hPa44%
22-Feb-2024 21:00Scattered Clouds14°C18 mph, NW41%10000m1012hPa36%
23-Feb-2024 00:00Scattered Clouds11°C11 mph, NW25%10000m1013hPa46%
23-Feb-2024 03:00Clear Sky7°C7 mph, NW0%10000m1015hPa61%
23-Feb-2024 06:00Clear Sky6°C7 mph, NW0%10000m1015hPa68%
23-Feb-2024 09:00Clear Sky5°C7 mph, NW0%10000m1015hPa72%
23-Feb-2024 12:00Clear Sky4°C9 mph, W0%10000m1015hPa70%
23-Feb-2024 15:00Clear Sky7°C11 mph, NW0%10000m1015hPa57%
23-Feb-2024 18:00Clear Sky13°C18 mph, NW0%10000m1013hPa36%
23-Feb-2024 21:00Scattered Clouds15°C18 mph, NW38%10000m1011hPa31%
24-Feb-2024 00:00Broken Clouds11°C11 mph, NW51%10000m1012hPa43%
24-Feb-2024 03:00Clear Sky7°C7 mph, NW2%10000m1015hPa57%
24-Feb-2024 06:00Clear Sky5°C4 mph, N1%10000m1016hPa69%
24-Feb-2024 09:00Clear Sky3°C4 mph, NE0%10000m1018hPa80%
24-Feb-2024 12:00Clear Sky2°C4 mph, SE0%10000m1018hPa83%
24-Feb-2024 15:00Clear Sky5°C9 mph, S0%10000m1018hPa71%
24-Feb-2024 18:00Clear Sky12°C13 mph, SW2%10000m1014hPa38%
24-Feb-2024 21:00Clear Sky16°C18 mph, SW4%10000m1010hPa25%
25-Feb-2024 00:00Clear Sky13°C9 mph, SW2%10000m1007hPa35%
25-Feb-2024 03:00Clear Sky10°C7 mph, W0%10000m1009hPa42%
25-Feb-2024 06:00Clear Sky8°C4 mph, SW0%10000m1008hPa42%
25-Feb-2024 09:00Clear Sky8°C4 mph, W1%10000m1007hPa40%
25-Feb-2024 12:00Clear Sky6°C4 mph, NW0%10000m1007hPa44%
25-Feb-2024 15:00Clear Sky9°C4 mph, N0%10000m1008hPa40%
25-Feb-2024 18:00Clear Sky14°C4 mph, NE0%10000m1007hPa29%
25-Feb-2024 21:00Clear Sky17°C2 mph, NW0%10000m1006hPa25%
26-Feb-2024 00:00Clear Sky13°C2 mph, NE0%10000m1007hPa35%